Terminal Aerodrome Forecast
Issued by NWS

Home | Current Version | Previous Version | Graphics & Text | Print | Product List | Glossary On
Versions: 1 2 3 4 5 6 7 8 9 10 11 12 13 14 15
000
FTUS45 KGGW 262300
TAFSDY
TAF
KSDY 262320Z 2700/2724 32015G25KT P6SM FEW060
     FM270200 33010KT P6SM FEW100
     FM270900 VRB06KT P6SM FEW190
      AMD LTD TO CLD VIS AND WIND=

USA.gov is the U.S. government's official web portal to all federal, state and local government web resources and services.